Time;durP1;ratioP1;P1;durP2;ratioP2;P2;SDS_P1;SDS_P2;PMS_P1;PMS_P2;Temp;Humidity;BMP_temperature;BMP_pressure;BME280_temperature;BME280_humidity;BME280_pressure;Samples;Min_cycle;Max_cycle;Signal;HPM_P1;HPM_P2
2023/04/01 00:01:00;;;;;;;;;;;15.20;56.20;;;;;;5094137;28;19957;-70
2023/04/01 00:03:26;;;;;;;;;;;15.20;56.10;;;;;;5093840;28;19908;-70
2023/04/01 00:05:52;;;;;;;;;;;15.20;56.10;;;;;;5093698;28;20327;-70
2023/04/01 00:08:18;;;;;;;;;;;15.20;56.10;;;;;;5093378;28;19911;-70
2023/04/01 00:10:44;;;;;;;;;;;15.30;56.10;;;;;;5114483;28;19903;-70
2023/04/01 00:13:09;;;;;;;;;;;15.30;56.00;;;;;;5095684;28;19911;-70
2023/04/01 00:15:35;;;;;;;;;;;15.30;56.10;;;;;;5114365;28;19903;-70
2023/04/01 00:18:00;;;;;;;;;;;15.30;56.00;;;;;;5099172;28;19903;-70
2023/04/01 00:20:26;;;;;;;;;;;15.30;56.00;;;;;;5118092;28;20334;-70
2023/04/01 00:22:52;;;;;;;;;;;15.30;56.00;;;;;;5118225;28;20287;-70
2023/04/01 00:25:17;;;;;;;;;;;15.40;56.00;;;;;;5099909;28;20361;-71
2023/04/01 00:27:43;;;;;;;;;;;15.40;55.90;;;;;;5118109;28;19946;-70
2023/04/01 00:30:08;;;;;;;;;;;15.40;56.20;;;;;;5117904;28;19911;-71
2023/04/01 00:32:35;;;;;;;;;;;15.40;56.10;;;;;;5117792;28;20308;-71
2023/04/01 00:35:00;;;;;;;;;;;15.40;55.90;;;;;;5118052;28;19908;-70
2023/04/01 00:37:27;;;;;;;;;;;15.40;55.90;;;;;;5118127;28;19915;-70
2023/04/01 00:39:52;;;;;;;;;;;15.40;55.90;;;;;;5117930;28;19903;-70
2023/04/01 00:42:18;;;;;;;;;;;15.40;56.00;;;;;;5118001;28;20509;-70
2023/04/01 00:44:50;;;;;;;;;;;15.40;55.90;;;;;;5117678;28;19972;-72
2023/04/01 00:47:15;;;;;;;;;;;15.40;56.00;;;;;;5099468;28;19911;-70
2023/04/01 00:49:42;;;;;;;;;;;15.40;55.90;;;;;;5099951;28;19903;-69
2023/04/01 00:52:10;;;;;;;;;;;15.40;56.00;;;;;;5117684;28;19904;-70
2023/04/01 00:54:37;;;;;;;;;;;15.40;56.00;;;;;;5117500;28;19943;-69
2023/04/01 00:57:08;;;;;;;;;;;15.40;55.90;;;;;;5118031;28;19904;-70
2023/04/01 00:59:37;;;;;;;;;;;15.50;55.90;;;;;;5117321;28;19948;-70
2023/04/01 01:02:03;;;;;;;;;;;15.40;56.00;;;;;;5117572;28;20265;-69
2023/04/01 01:04:30;;;;;;;;;;;15.50;56.00;;;;;;5117511;28;20006;-69
2023/04/01 01:07:14;;;;;;;;;;;15.50;56.10;;;;;;5117610;28;19908;-69
2023/04/01 01:09:43;;;;;;;;;;;15.50;56.00;;;;;;5117202;28;20281;-69
2023/04/01 01:12:08;;;;;;;;;;;15.50;56.10;;;;;;5117608;28;19908;-69
2023/04/01 01:14:39;;;;;;;;;;;15.50;56.10;;;;;;5117769;28;19903;-69
2023/04/01 01:17:13;;;;;;;;;;;15.50;56.00;;;;;;5117238;28;19903;-68
2023/04/01 01:19:50;;;;;;;;;;;15.50;56.10;;;;;;5098961;28;19914;-70
2023/04/01 01:22:35;;;;;;;;;;;15.50;56.00;;;;;;5117321;28;19904;-70
2023/04/01 01:25:01;;;;;;;;;;;15.50;56.10;;;;;;5117302;28;19926;-70
2023/04/01 01:27:26;;;;;;;;;;;15.50;55.90;;;;;;5117038;28;19907;-69
2023/04/01 01:30:16;;;;;;;;;;;15.50;56.00;;;;;;5116225;28;19903;-69
2023/04/01 01:32:53;;;;;;;;;;;15.50;56.00;;;;;;5098722;28;19904;-70
2023/04/01 01:35:42;;;;;;;;;;;15.50;56.10;;;;;;5116480;28;20288;-69
2023/04/01 01:38:12;;;;;;;;;;;15.50;56.00;;;;;;5065507;28;20247;-71
2023/04/01 01:40:40;;;;;;;;;;;15.50;56.10;;;;;;5096326;28;19912;-69
2023/04/01 01:43:08;;;;;;;;;;;15.50;56.10;;;;;;5096066;28;20346;-69
2023/04/01 01:45:35;;;;;;;;;;;15.50;56.10;;;;;;5096434;28;19908;-68
2023/04/01 01:48:02;;;;;;;;;;;15.50;56.10;;;;;;5096207;28;19915;-68
2023/04/01 01:50:28;;;;;;;;;;;15.50;56.20;;;;;;5096245;28;19911;-68
2023/04/01 01:53:07;;;;;;;;;;;15.50;56.30;;;;;;5096009;28;20366;-68
2023/04/01 01:55:37;;;;;;;;;;;15.60;56.30;;;;;;5096171;28;20257;-69
2023/04/01 01:58:11;;;;;;;;;;;15.60;56.20;;;;;;5078686;28;19950;-68
2023/04/01 02:00:37;;;;;;;;;;;15.60;56.20;;;;;;5078338;28;19904;-68
2023/04/01 02:03:03;;;;;;;;;;;15.60;56.20;;;;;;5095909;28;20269;-69
2023/04/01 02:05:30;;;;;;;;;;;15.60;56.20;;;;;;5095785;28;19912;-69
2023/04/01 02:08:16;;;;;;;;;;;15.60;56.20;;;;;;5063150;28;19916;-69
2023/04/01 02:10:43;;;;;;;;;;;15.60;56.20;;;;;;5075192;28;20366;-69
2023/04/01 02:13:28;;;;;;;;;;;15.60;56.20;;;;;;5057976;28;19955;-69
2023/04/01 02:15:56;;;;;;;;;;;15.60;56.20;;;;;;5057558;28;19904;-69
2023/04/01 02:18:22;;;;;;;;;;;15.60;56.40;;;;;;5075269;28;19911;-69
2023/04/01 02:20:48;;;;;;;;;;;15.50;56.30;;;;;;5075051;28;19905;-70
2023/04/01 02:23:14;;;;;;;;;;;15.60;56.40;;;;;;5075118;28;19909;-70
2023/04/01 02:25:41;;;;;;;;;;;15.60;56.30;;;;;;5075420;28;19975;-70
2023/04/01 02:28:07;;;;;;;;;;;15.60;56.30;;;;;;5075283;28;19995;-69
2023/04/01 02:30:34;;;;;;;;;;;15.60;56.30;;;;;;5057443;28;20257;-70
2023/04/01 02:33:00;;;;;;;;;;;15.60;56.40;;;;;;5074998;28;19904;-69
2023/04/01 02:35:26;;;;;;;;;;;15.60;56.40;;;;;;5075097;28;19959;-69
2023/04/01 02:37:53;;;;;;;;;;;15.60;56.40;;;;;;5076338;28;19908;-69
2023/04/01 02:40:19;;;;;;;;;;;15.60;56.20;;;;;;5055949;28;19915;-71
2023/04/01 02:42:45;;;;;;;;;;;15.60;56.30;;;;;;5056884;28;19905;-69
2023/04/01 02:45:11;;;;;;;;;;;15.60;56.30;;;;;;5074804;28;20238;-70
2023/04/01 02:47:37;;;;;;;;;;;15.60;56.40;;;;;;5056896;28;19951;-72
2023/04/01 02:50:03;;;;;;;;;;;15.60;56.40;;;;;;5074530;28;19958;-70
2023/04/01 02:52:29;;;;;;;;;;;15.60;56.40;;;;;;5057352;28;19995;-70
2023/04/01 02:54:55;;;;;;;;;;;15.60;56.50;;;;;;5075051;28;19912;-70
2023/04/01 02:57:21;;;;;;;;;;;15.60;57.00;;;;;;5074531;28;19976;-70
2023/04/01 02:59:46;;;;;;;;;;;15.70;56.40;;;;;;5074514;28;19904;-69
2023/04/01 03:02:12;;;;;;;;;;;15.70;56.40;;;;;;5056542;28;19987;-70
2023/04/01 03:04:38;;;;;;;;;;;15.70;56.40;;;;;;5074234;28;19908;-69
2023/04/01 03:07:03;;;;;;;;;;;15.70;56.50;;;;;;5081995;28;19915;-69
2023/04/01 03:09:29;;;;;;;;;;;15.70;56.40;;;;;;5094663;28;20334;-68
2023/04/01 03:11:55;;;;;;;;;;;15.70;56.40;;;;;;5076551;28;20401;-69
2023/04/01 03:14:21;;;;;;;;;;;15.70;56.50;;;;;;5094716;28;19990;-68
2023/04/01 03:16:46;;;;;;;;;;;15.70;56.40;;;;;;5094487;28;19911;-69
2023/04/01 03:19:12;;;;;;;;;;;15.70;56.50;;;;;;5094245;28;19908;-70
2023/04/01 03:21:37;;;;;;;;;;;15.70;56.50;;;;;;5094732;28;19904;-70
2023/04/01 03:24:03;;;;;;;;;;;15.70;56.50;;;;;;5094459;28;19911;-70
2023/04/01 03:26:29;;;;;;;;;;;15.70;57.10;;;;;;5094261;28;19919;-69
2023/04/01 03:28:55;;;;;;;;;;;15.60;56.40;;;;;;5076429;28;20365;-68
2023/04/01 03:31:21;;;;;;;;;;;15.70;57.20;;;;;;5094246;28;19911;-69
2023/04/01 03:33:46;;;;;;;;;;;15.70;56.60;;;;;;5094577;28;19908;-69
2023/04/01 03:36:12;;;;;;;;;;;15.70;56.60;;;;;;5102283;28;19920;-69
2023/04/01 03:38:39;;;;;;;;;;;15.70;56.50;;;;;;5114641;28;19949;-69
2023/04/01 03:41:05;;;;;;;;;;;15.70;56.60;;;;;;5096501;28;20014;-69
2023/04/01 03:43:30;;;;;;;;;;;15.70;56.50;;;;;;5096241;28;19961;-69
2023/04/01 03:45:57;;;;;;;;;;;15.70;56.60;;;;;;5114645;28;19960;-69
2023/04/01 03:48:25;;;;;;;;;;;15.70;56.60;;;;;;5114551;28;19923;-68
2023/04/01 03:50:51;;;;;;;;;;;15.70;56.60;;;;;;5114638;28;19908;-70
2023/04/01 03:53:16;;;;;;;;;;;15.70;56.50;;;;;;5118753;28;19925;-69
2023/04/01 03:55:42;;;;;;;;;;;15.70;56.60;;;;;;5118816;28;19990;-70
2023/04/01 03:58:07;;;;;;;;;;;15.70;56.60;;;;;;5118789;28;20291;-68
2023/04/01 04:00:33;;;;;;;;;;;15.70;56.60;;;;;;5100504;28;19967;-69
2023/04/01 04:02:59;;;;;;;;;;;15.70;56.60;;;;;;5100444;28;20257;-68
2023/04/01 04:05:25;;;;;;;;;;;15.70;56.60;;;;;;5100788;28;20356;-70
2023/04/01 04:07:50;;;;;;;;;;;15.80;56.60;;;;;;5100211;28;20002;-70
2023/04/01 04:10:16;;;;;;;;;;;15.80;56.70;;;;;;5118617;28;20333;-68
2023/04/01 04:12:42;;;;;;;;;;;15.80;56.70;;;;;;5118382;28;20272;-69
2023/04/01 04:15:08;;;;;;;;;;;15.80;56.70;;;;;;5118547;28;19910;-70
2023/04/01 04:17:33;;;;;;;;;;;15.80;56.70;;;;;;5118177;28;19907;-69
2023/04/01 04:19:59;;;;;;;;;;;15.80;56.70;;;;;;5118278;28;19960;-69
2023/04/01 04:22:24;;;;;;;;;;;15.80;56.70;;;;;;5117846;28;20307;-69
2023/04/01 04:24:50;;;;;;;;;;;15.90;56.60;;;;;;5117629;28;19911;-69
2023/04/01 04:27:15;;;;;;;;;;;15.90;56.60;;;;;;5117646;28;19907;-69
2023/04/01 04:29:41;;;;;;;;;;;15.90;56.60;;;;;;5118153;28;20275;-70
2023/04/01 04:32:07;;;;;;;;;;;15.90;56.50;;;;;;5099679;28;19915;-70
2023/04/01 04:34:32;;;;;;;;;;;15.90;56.60;;;;;;5118536;28;19911;-71
2023/04/01 04:36:58;;;;;;;;;;;15.90;56.60;;;;;;5103505;28;19923;-71
2023/04/01 04:39:23;;;;;;;;;;;15.90;56.60;;;;;;5097456;28;19907;-70
2023/04/01 04:41:49;;;;;;;;;;;15.90;56.60;;;;;;5097596;28;19908;-70
2023/04/01 04:44:14;;;;;;;;;;;15.90;56.60;;;;;;5079314;28;20234;-69
2023/04/01 04:46:40;;;;;;;;;;;15.90;56.60;;;;;;5097377;28;20250;-69
2023/04/01 04:49:06;;;;;;;;;;;15.90;56.60;;;;;;5097897;28;20307;-69
2023/04/01 04:51:33;;;;;;;;;;;15.90;56.60;;;;;;5097383;28;20006;-69
2023/04/01 04:53:59;;;;;;;;;;;16.00;56.70;;;;;;5097400;28;19922;-69
2023/04/01 04:56:25;;;;;;;;;;;16.00;56.60;;;;;;5097321;28;19904;-69
2023/04/01 04:58:51;;;;;;;;;;;16.00;56.60;;;;;;5097152;28;19904;-69
2023/04/01 05:01:17;;;;;;;;;;;16.00;56.60;;;;;;5097243;28;19910;-70
2023/04/01 05:03:43;;;;;;;;;;;16.00;56.60;;;;;;5077880;28;20349;-70
2023/04/01 05:06:11;;;;;;;;;;;16.00;56.50;;;;;;5097042;28;19919;-70
2023/04/01 05:08:37;;;;;;;;;;;16.00;57.10;;;;;;5058814;28;19919;-69
2023/04/01 05:11:03;;;;;;;;;;;16.00;56.60;;;;;;5060755;28;19917;-70
2023/04/01 05:13:28;;;;;;;;;;;16.00;56.60;;;;;;5064756;28;20078;-69
2023/04/01 05:15:54;;;;;;;;;;;16.00;56.60;;;;;;5086405;28;19916;-73
2023/04/01 05:18:20;;;;;;;;;;;16.10;56.70;;;;;;5067296;28;20243;-70
2023/04/01 05:20:49;;;;;;;;;;;16.10;56.60;;;;;;5086345;28;19995;-69
2023/04/01 05:23:14;;;;;;;;;;;16.10;56.50;;;;;;5066486;28;19931;-74
2023/04/01 05:25:40;;;;;;;;;;;16.10;56.50;;;;;;5084722;28;19911;-70
2023/04/01 05:28:05;;;;;;;;;;;16.10;56.50;;;;;;5085871;28;20011;-71
2023/04/01 05:30:31;;;;;;;;;;;16.10;56.40;;;;;;5083827;28;19912;-70
2023/04/01 05:32:56;;;;;;;;;;;16.20;56.40;;;;;;5067109;28;19911;-71
2023/04/01 05:35:23;;;;;;;;;;;16.20;56.50;;;;;;5086123;28;19913;-73
2023/04/01 05:37:49;;;;;;;;;;;16.20;56.50;;;;;;5085839;28;20083;-71
2023/04/01 05:40:14;;;;;;;;;;;16.20;56.50;;;;;;5088453;28;20258;-74
2023/04/01 05:42:40;;;;;;;;;;;16.20;56.40;;;;;;5104071;28;19911;-72
2023/04/01 05:45:06;;;;;;;;;;;16.30;56.40;;;;;;5106045;28;19912;-72
2023/04/01 05:47:31;;;;;;;;;;;16.30;56.40;;;;;;5106921;28;19987;-71
2023/04/01 05:49:57;;;;;;;;;;;16.30;56.40;;;;;;5105963;28;19907;-71
2023/04/01 05:52:23;;;;;;;;;;;16.30;56.40;;;;;;5105764;28;19908;-70
2023/04/01 05:54:49;;;;;;;;;;;16.30;56.40;;;;;;5106874;28;19911;-74
2023/04/01 05:57:15;;;;;;;;;;;16.30;56.30;;;;;;5105774;28;19960;-72
2023/04/01 05:59:40;;;;;;;;;;;16.30;56.40;;;;;;5095209;28;19911;-70
2023/04/01 06:02:06;;;;;;;;;;;16.40;56.40;;;;;;5110166;28;20002;-72
2023/04/01 06:04:37;;;;;;;;;;;16.40;56.20;;;;;;5104494;28;19984;-71
2023/04/01 06:07:05;;;;;;;;;;;16.40;56.30;;;;;;5103829;28;19916;-71
2023/04/01 06:09:31;;;;;;;;;;;16.40;56.20;;;;;;5104573;28;19986;-71
2023/04/01 06:11:56;;;;;;;;;;;16.40;56.20;;;;;;5106265;28;19969;-72
2023/04/01 06:14:38;;;;;;;;;;;16.40;56.10;;;;;;5107239;28;20364;-71
2023/04/01 06:17:06;;;;;;;;;;;16.40;56.10;;;;;;5104948;28;19989;-71
2023/04/01 06:19:39;;;;;;;;;;;16.40;56.20;;;;;;5106748;28;19991;-71
2023/04/01 06:22:17;;;;;;;;;;;16.40;56.20;;;;;;5105134;28;19986;-71
2023/04/01 06:25:03;;;;;;;;;;;16.50;56.30;;;;;;5107832;28;19947;-72
2023/04/01 06:27:40;;;;;;;;;;;16.50;56.20;;;;;;5087742;28;19915;-71
2023/04/01 06:30:24;;;;;;;;;;;16.50;56.20;;;;;;5086733;28;20317;-70
2023/04/01 06:33:08;;;;;;;;;;;16.50;56.20;;;;;;5104091;28;19911;-72
2023/04/01 06:35:45;;;;;;;;;;;16.50;56.20;;;;;;5102247;28;19920;-73
2023/04/01 06:38:14;;;;;;;;;;;16.60;56.20;;;;;;5085686;28;19911;-71
2023/04/01 06:41:04;;;;;;;;;;;16.60;56.20;;;;;;5065234;28;19911;-71
2023/04/01 06:43:36;;;;;;;;;;;16.60;56.20;;;;;;5086506;28;20354;-70
2023/04/01 06:46:01;;;;;;;;;;;16.70;56.30;;;;;;5067024;28;20269;-72
2023/04/01 06:48:46;;;;;;;;;;;16.80;56.20;;;;;;5084197;28;19994;-72
2023/04/01 06:51:26;;;;;;;;;;;16.80;56.10;;;;;;5085050;28;19910;-72
2023/04/01 06:53:58;;;;;;;;;;;16.90;56.10;;;;;;5084830;28;19908;-72
2023/04/01 06:56:26;;;;;;;;;;;17.00;56.00;;;;;;5077166;28;20000;-71
2023/04/01 06:58:53;;;;;;;;;;;17.00;55.90;;;;;;5078505;28;19942;-74
2023/04/01 07:01:24;;;;;;;;;;;17.00;55.80;;;;;;5060470;28;19912;-72
2023/04/01 07:04:01;;;;;;;;;;;17.00;55.50;;;;;;5093507;28;19908;-74
2023/04/01 07:06:31;;;;;;;;;;;16.90;55.40;;;;;;5093763;28;19911;-71
2023/04/01 07:09:00;;;;;;;;;;;16.90;55.40;;;;;;5090956;28;19958;-73
2023/04/01 07:11:34;;;;;;;;;;;16.90;55.30;;;;;;5093581;28;19933;-72
2023/04/01 07:14:22;;;;;;;;;;;16.80;55.30;;;;;;5092771;28;20349;-73
2023/04/01 07:16:50;;;;;;;;;;;16.80;55.30;;;;;;5056697;28;19942;-70
2023/04/01 07:19:27;;;;;;;;;;;16.70;55.30;;;;;;5090947;28;19915;-70
2023/04/01 07:21:55;;;;;;;;;;;16.60;55.60;;;;;;5075998;28;19970;-70
2023/04/01 07:24:23;;;;;;;;;;;16.60;55.60;;;;;;5076259;28;19915;-70
2023/04/01 07:26:52;;;;;;;;;;;16.60;55.70;;;;;;5093056;28;19915;-70
2023/04/01 07:29:18;;;;;;;;;;;16.50;55.60;;;;;;5093929;28;19915;-70
2023/04/01 07:32:05;;;;;;;;;;;16.50;55.80;;;;;;5094332;28;19904;-71
2023/04/01 07:34:45;;;;;;;;;;;16.40;55.70;;;;;;5094336;28;19957;-70
2023/04/01 07:37:14;;;;;;;;;;;16.40;55.70;;;;;;5110638;28;20397;-71
2023/04/01 07:39:47;;;;;;;;;;;16.40;55.80;;;;;;5114442;28;19908;-71
2023/04/01 07:42:22;;;;;;;;;;;16.30;55.80;;;;;;5114740;28;20424;-70
2023/04/01 07:44:56;;;;;;;;;;;16.30;55.90;;;;;;5114867;28;20376;-70
2023/04/01 07:47:22;;;;;;;;;;;16.30;55.90;;;;;;5114545;28;20342;-72
2023/04/01 07:49:56;;;;;;;;;;;16.20;55.90;;;;;;5114362;28;19911;-70
2023/04/01 07:52:29;;;;;;;;;;;16.20;55.90;;;;;;5114392;28;19904;-70
2023/04/01 07:55:01;;;;;;;;;;;16.20;55.90;;;;;;5096377;28;19964;-71
2023/04/01 07:57:47;;;;;;;;;;;16.20;55.90;;;;;;5114472;28;20269;-70
2023/04/01 08:00:15;;;;;;;;;;;16.30;55.90;;;;;;5062255;28;19989;-70
2023/04/01 08:02:59;;;;;;;;;;;16.30;55.90;;;;;;5114336;28;19908;-70
2023/04/01 08:05:29;;;;;;;;;;;16.30;55.80;;;;;;5114113;28;20354;-70
2023/04/01 08:07:55;;;;;;;;;;;16.30;55.70;;;;;;5114324;28;19908;-71
2023/04/01 08:10:39;;;;;;;;;;;16.30;55.70;;;;;;5114026;28;19914;-70
2023/04/01 08:13:20;;;;;;;;;;;16.30;55.70;;;;;;5114245;28;20347;-71
2023/04/01 08:15:52;;;;;;;;;;;16.30;55.80;;;;;;5114216;28;19910;-70
2023/04/01 08:18:26;;;;;;;;;;;16.40;55.70;;;;;;5096178;28;19904;-70
2023/04/01 08:20:57;;;;;;;;;;;16.50;55.60;;;;;;5114129;28;19903;-70
2023/04/01 08:23:36;;;;;;;;;;;16.50;55.50;;;;;;5095509;28;19915;-71
2023/04/01 08:26:01;;;;;;;;;;;16.60;55.50;;;;;;5113945;28;19907;-71
2023/04/01 08:28:40;;;;;;;;;;;16.60;55.30;;;;;;5113620;28;19969;-71
2023/04/01 08:31:10;;;;;;;;;;;16.60;55.30;;;;;;5113826;28;19957;-70
2023/04/01 08:33:36;;;;;;;;;;;16.70;55.20;;;;;;5114117;28;19903;-71
2023/04/01 08:36:09;;;;;;;;;;;16.70;55.20;;;;;;5113623;28;19927;-71
2023/04/01 08:38:42;;;;;;;;;;;16.70;55.10;;;;;;5116533;28;19911;-70
2023/04/01 08:41:14;;;;;;;;;;;16.80;55.10;;;;;;5099208;28;19994;-71
2023/04/01 08:43:42;;;;;;;;;;;16.70;55.00;;;;;;5117376;28;19908;-72
2023/04/01 08:46:25;;;;;;;;;;;16.80;55.00;;;;;;5117416;28;19914;-70
2023/04/01 08:49:04;;;;;;;;;;;16.80;55.00;;;;;;5117959;28;20269;-71
2023/04/01 08:51:33;;;;;;;;;;;16.80;55.00;;;;;;5099232;28;20360;-71
2023/04/01 08:54:04;;;;;;;;;;;16.80;55.00;;;;;;5117501;28;19904;-71
2023/04/01 08:56:41;;;;;;;;;;;16.80;55.00;;;;;;5117179;28;19950;-71
2023/04/01 08:59:10;;;;;;;;;;;16.80;54.90;;;;;;5117733;28;19904;-71
2023/04/01 09:02:01;;;;;;;;;;;16.80;54.90;;;;;;5117422;28;19904;-71
2023/04/01 09:04:30;;;;;;;;;;;16.80;54.90;;;;;;5078326;28;20001;-71
2023/04/01 09:07:11;;;;;;;;;;;16.80;54.90;;;;;;5116964;28;20345;-72
2023/04/01 09:09:40;;;;;;;;;;;16.80;54.90;;;;;;5099643;28;19914;-71
2023/04/01 09:12:17;;;;;;;;;;;16.80;54.90;;;;;;5117230;28;19949;-72
2023/04/01 09:14:43;;;;;;;;;;;16.80;54.90;;;;;;5117029;28;19903;-71
2023/04/01 09:17:17;;;;;;;;;;;16.80;54.90;;;;;;5098629;28;20371;-71
2023/04/01 09:20:01;;;;;;;;;;;16.80;54.80;;;;;;5117044;28;19915;-71
2023/04/01 09:22:27;;;;;;;;;;;16.90;54.80;;;;;;5099064;28;19910;-70
2023/04/01 09:25:01;;;;;;;;;;;17.00;54.80;;;;;;5116965;28;19904;-71
2023/04/01 09:27:28;;;;;;;;;;;17.10;54.70;;;;;;5116960;28;20019;-72
2023/04/01 09:30:05;;;;;;;;;;;17.10;54.50;;;;;;5116777;28;19926;-71
2023/04/01 09:32:50;;;;;;;;;;;17.10;54.40;;;;;;5116939;28;19961;-71
2023/04/01 09:35:23;;;;;;;;;;;17.10;55.10;;;;;;5116875;28;19907;-71
2023/04/01 09:38:05;;;;;;;;;;;17.10;54.40;;;;;;5117095;28;20010;-71
2023/04/01 09:40:33;;;;;;;;;;;17.10;54.40;;;;;;5116665;28;20365;-71
2023/04/01 09:43:18;;;;;;;;;;;17.10;54.30;;;;;;5116630;28;19947;-71
2023/04/01 09:45:46;;;;;;;;;;;17.20;54.40;;;;;;5116640;28;19955;-71
2023/04/01 09:48:21;;;;;;;;;;;17.20;54.30;;;;;;5098481;28;19907;-71
2023/04/01 09:50:56;;;;;;;;;;;17.20;54.30;;;;;;5097754;28;19904;-71
2023/04/01 09:53:27;;;;;;;;;;;17.20;54.20;;;;;;5116957;28;20340;-71
2023/04/01 09:56:11;;;;;;;;;;;17.20;54.10;;;;;;5116422;28;19926;-71
2023/04/01 09:58:52;;;;;;;;;;;17.20;54.20;;;;;;5116367;28;19904;-71
2023/04/01 10:01:36;;;;;;;;;;;17.20;54.10;;;;;;5097895;28;20444;-71
2023/04/01 10:04:10;;;;;;;;;;;17.20;54.20;;;;;;5116357;28;19907;-71
2023/04/01 10:06:42;;;;;;;;;;;17.20;54.20;;;;;;5115979;28;20245;-71
2023/04/01 10:09:10;;;;;;;;;;;17.10;54.80;;;;;;5115946;28;19907;-71
2023/04/01 10:11:56;;;;;;;;;;;17.10;54.20;;;;;;5115462;28;19904;-70
2023/04/01 10:14:31;;;;;;;;;;;17.10;54.30;;;;;;5097831;28;20058;-71
2023/04/01 10:17:15;;;;;;;;;;;17.00;54.20;;;;;;5116198;28;20265;-71
2023/04/01 10:19:59;;;;;;;;;;;17.00;54.30;;;;;;5096219;28;19903;-71
2023/04/01 10:22:37;;;;;;;;;;;17.00;54.30;;;;;;5094489;28;20372;-72
2023/04/01 10:25:14;;;;;;;;;;;17.00;54.30;;;;;;5094417;28;19911;-72
2023/04/01 10:28:00;;;;;;;;;;;17.00;54.30;;;;;;5094134;28;19912;-72
2023/04/01 10:30:35;;;;;;;;;;;17.10;54.40;;;;;;5079681;28;20312;-72
2023/04/01 10:33:26;;;;;;;;;;;17.10;54.30;;;;;;5094233;28;19904;-72
2023/04/01 10:36:00;;;;;;;;;;;17.20;54.30;;;;;;5075511;28;19920;-73
2023/04/01 10:38:44;;;;;;;;;;;17.20;54.20;;;;;;5076025;28;19936;-72
2023/04/01 10:41:33;;;;;;;;;;;17.30;54.20;;;;;;5093916;28;20334;-72
2023/04/01 10:43:58;;;;;;;;;;;17.30;54.10;;;;;;5094096;28;20010;-72
2023/04/01 10:46:30;;;;;;;;;;;17.30;54.10;;;;;;5094475;28;20007;-73
2023/04/01 10:49:07;;;;;;;;;;;17.30;54.10;;;;;;5093590;28;19915;-73
2023/04/01 10:51:45;;;;;;;;;;;17.30;54.00;;;;;;5093874;28;19906;-73
2023/04/01 10:54:15;;;;;;;;;;;17.40;54.00;;;;;;5093990;28;19915;-70
2023/04/01 10:56:41;;;;;;;;;;;17.40;53.90;;;;;;5093773;28;19911;-71
2023/04/01 10:59:31;;;;;;;;;;;17.40;53.90;;;;;;5093795;28;19904;-71
2023/04/01 11:01:58;;;;;;;;;;;17.50;53.90;;;;;;5092461;28;20017;-71
2023/04/01 11:04:26;;;;;;;;;;;17.50;53.90;;;;;;5075750;28;20263;-73
2023/04/01 11:06:55;;;;;;;;;;;17.50;53.90;;;;;;5093924;28;20359;-75
2023/04/01 11:09:39;;;;;;;;;;;17.50;53.80;;;;;;5075658;28;19908;-72
2023/04/01 11:12:31;;;;;;;;;;;17.50;53.80;;;;;;5092835;28;19958;-72
2023/04/01 11:15:15;;;;;;;;;;;17.60;53.70;;;;;;5075616;28;20293;-73
2023/04/01 11:18:03;;;;;;;;;;;17.50;53.60;;;;;;5093367;28;19904;-73
2023/04/01 11:20:36;;;;;;;;;;;17.50;53.60;;;;;;5093631;28;19908;-73
2023/04/01 11:23:17;;;;;;;;;;;17.50;53.60;;;;;;5093096;28;19911;-72
2023/04/01 11:26:06;;;;;;;;;;;17.50;53.60;;;;;;5092782;28;20266;-74
2023/04/01 11:28:43;;;;;;;;;;;17.50;53.70;;;;;;5080425;28;19962;-73
2023/04/01 11:31:15;;;;;;;;;;;17.50;53.70;;;;;;5112961;28;19912;-72
2023/04/01 11:33:43;;;;;;;;;;;17.50;53.70;;;;;;5094605;28;19903;-73
2023/04/01 11:36:20;;;;;;;;;;;17.50;53.70;;;;;;5113051;28;19923;-71
2023/04/01 11:38:52;;;;;;;;;;;17.60;53.80;;;;;;5113234;28;19912;-69
2023/04/01 11:41:30;;;;;;;;;;;17.60;53.70;;;;;;5113337;28;20009;-70
2023/04/01 11:43:55;;;;;;;;;;;17.60;53.60;;;;;;5113012;28;20345;-70
2023/04/01 11:46:25;;;;;;;;;;;17.70;53.60;;;;;;5113473;28;19908;-70
2023/04/01 11:48:57;;;;;;;;;;;17.80;53.60;;;;;;5094987;28;19908;-70
2023/04/01 11:51:41;;;;;;;;;;;17.90;53.50;;;;;;5106134;28;20485;-70
2023/04/01 11:54:12;;;;;;;;;;;18.00;53.30;;;;;;5112873;28;19913;-69
2023/04/01 11:56:58;;;;;;;;;;;18.00;53.20;;;;;;5099448;28;20280;-69
2023/04/01 11:59:40;;;;;;;;;;;18.00;53.20;;;;;;5095816;28;19908;-70
2023/04/01 12:02:11;;;;;;;;;;;18.10;53.30;;;;;;5104304;28;19911;-71
2023/04/01 12:04:43;;;;;;;;;;;18.10;53.10;;;;;;5105539;28;19911;-72
2023/04/01 12:07:34;;;;;;;;;;;18.20;53.10;;;;;;5093031;28;19908;-71
2023/04/01 12:10:06;;;;;;;;;;;18.20;53.00;;;;;;5097808;28;20368;-75
2023/04/01 12:12:50;;;;;;;;;;;18.30;52.90;;;;;;5075729;28;19905;-73
2023/04/01 12:15:20;;;;;;;;;;;18.30;52.80;;;;;;5096664;28;19908;-71
2023/04/01 12:17:56;;;;;;;;;;;18.20;52.80;;;;;;5086452;28;19903;-73
2023/04/01 12:20:22;;;;;;;;;;;18.20;52.80;;;;;;5107551;28;19947;-70
2023/04/01 12:23:08;;;;;;;;;;;18.20;52.80;;;;;;5096752;28;20364;-74
2023/04/01 12:25:33;;;;;;;;;;;18.20;52.80;;;;;;5044504;28;19919;-72
2023/04/01 12:28:17;;;;;;;;;;;18.20;53.40;;;;;;5102887;28;19915;-73
2023/04/01 12:30:51;;;;;;;;;;;18.10;52.80;;;;;;5106349;28;19954;-72
2023/04/01 12:33:16;;;;;;;;;;;18.00;52.80;;;;;;5107644;28;20523;-72
2023/04/01 12:35:53;;;;;;;;;;;18.00;52.90;;;;;;5104664;28;19920;-70
2023/04/01 12:38:25;;;;;;;;;;;17.90;52.90;;;;;;5095841;28;19931;-71
2023/04/01 12:40:50;;;;;;;;;;;17.90;53.00;;;;;;5078525;28;19979;-75
2023/04/01 12:43:35;;;;;;;;;;;17.90;53.10;;;;;;5086182;28;19951;-71
2023/04/01 12:46:13;;;;;;;;;;;17.80;53.10;;;;;;5084083;28;19986;-71
2023/04/01 12:48:38;;;;;;;;;;;17.80;53.80;;;;;;5087277;28;19911;-72
2023/04/01 12:51:04;;;;;;;;;;;17.80;53.10;;;;;;5095803;28;19961;-72
2023/04/01 12:53:48;;;;;;;;;;;17.80;53.20;;;;;;5090937;28;19915;-71
2023/04/01 12:56:32;;;;;;;;;;;17.70;53.10;;;;;;5084583;28;19955;-73
2023/04/01 12:59:10;;;;;;;;;;;17.70;53.10;;;;;;5085133;28;19905;-73
2023/04/01 13:01:41;;;;;;;;;;;17.60;53.10;;;;;;5083359;28;20416;-75
2023/04/01 13:04:07;;;;;;;;;;;17.60;53.20;;;;;;5083495;28;19909;-74
2023/04/01 13:06:41;;;;;;;;;;;17.50;53.30;;;;;;5083833;28;20319;-74
2023/04/01 13:09:06;;;;;;;;;;;17.50;53.30;;;;;;5085114;28;19959;-73
2023/04/01 13:11:52;;;;;;;;;;;17.50;53.40;;;;;;5085556;28;19958;-73
2023/04/01 13:14:17;;;;;;;;;;;17.50;53.40;;;;;;5069520;28;19919;-74
2023/04/01 13:16:52;;;;;;;;;;;17.50;53.50;;;;;;5084650;28;19908;-72
2023/04/01 13:19:25;;;;;;;;;;;17.40;53.50;;;;;;5076544;28;19912;-76
2023/04/01 13:21:51;;;;;;;;;;;17.40;53.50;;;;;;5094588;28;19962;-77
2023/04/01 13:24:40;;;;;;;;;;;17.40;53.40;;;;;;5082992;28;20326;-71
2023/04/01 13:27:09;;;;;;;;;;;17.40;53.50;;;;;;5073956;28;20014;-66
2023/04/01 13:29:36;;;;;;;;;;;17.40;57.00;;;;;;5074057;28;20037;-66
2023/04/01 13:32:09;;;;;;;;;;;17.40;57.20;;;;;;5074350;28;19943;-65
2023/04/01 13:34:39;;;;;;;;;;;17.50;58.10;;;;;;5074778;28;19921;-66
2023/04/01 13:37:05;;;;;;;;;;;17.70;58.40;;;;;;5085493;28;19916;-66
2023/04/01 13:39:33;;;;;;;;;;;17.70;57.80;;;;;;5075138;28;19905;-66
2023/04/01 13:41:59;;;;;;;;;;;17.90;57.30;;;;;;5075825;28;19909;-67
2023/04/01 13:44:45;;;;;;;;;;;17.90;57.50;;;;;;5095594;28;19911;-68
2023/04/01 13:47:28;;;;;;;;;;;18.00;57.80;;;;;;5094353;28;19908;-73
2023/04/01 13:49:54;;;;;;;;;;;18.20;56.60;;;;;;5094635;28;19912;-71
2023/04/01 13:52:24;;;;;;;;;;;18.20;56.10;;;;;;5073000;28;19954;-73
2023/04/01 13:54:52;;;;;;;;;;;18.30;55.50;;;;;;5093881;28;19911;-70
2023/04/01 13:57:37;;;;;;;;;;;18.30;55.10;;;;;;5065861;28;19912;-70
2023/04/01 14:00:21;;;;;;;;;;;18.20;54.80;;;;;;5095894;28;19987;-71
2023/04/01 14:03:05;;;;;;;;;;;18.20;54.70;;;;;;5095027;28;19912;-70
2023/04/01 14:05:40;;;;;;;;;;;18.10;54.60;;;;;;5095490;28;19908;-70
2023/04/01 14:08:05;;;;;;;;;;;18.10;54.60;;;;;;5094827;28;19912;-70
2023/04/01 14:10:54;;;;;;;;;;;18.10;54.70;;;;;;5095241;28;19926;-70
2023/04/01 14:13:30;;;;;;;;;;;18.20;55.60;;;;;;5082023;28;19961;-70
2023/04/01 14:16:04;;;;;;;;;;;18.50;55.00;;;;;;5096175;28;19911;-70
2023/04/01 14:18:39;;;;;;;;;;;18.90;55.00;;;;;;5095692;28;19904;-70
2023/04/01 14:21:18;;;;;;;;;;;19.40;54.50;;;;;;5095251;28;19904;-70
2023/04/01 14:23:53;;;;;;;;;;;20.00;53.90;;;;;;5095222;28;19937;-70
2023/04/01 14:26:32;;;;;;;;;;;20.70;53.30;;;;;;5077737;28;19912;-70
2023/04/01 14:29:26;;;;;;;;;;;21.30;52.60;;;;;;5095451;28;20057;-70
2023/04/01 14:32:07;;;;;;;;;;;21.60;51.70;;;;;;5005563;28;19905;-70
2023/04/01 14:34:36;;;;;;;;;;;21.60;50.70;;;;;;5095246;28;20441;-69
2023/04/01 14:37:13;;;;;;;;;;;21.50;50.80;;;;;;5076755;28;20339;-71
2023/04/01 14:39:48;;;;;;;;;;;21.40;50.90;;;;;;5095148;28;19904;-70
2023/04/01 14:42:28;;;;;;;;;;;21.60;51.20;;;;;;5095004;28;19904;-69